Time;durP1;ratioP1;P1;durP2;ratioP2;P2;SDS_P1;SDS_P2;PMS_P1;PMS_P2;Temp;Humidity;BMP_temperature;BMP_pressure;BME280_temperature;BME280_humidity;BME280_pressure;Samples;Min_cycle;Max_cycle;Signal;HPM_P1;HPM_P2
2022/03/29 00:01:46;;;;;;;0.17;0.10;;;21.20;99.90;;;;;;4975915;28;20065;-71
2022/03/29 00:04:15;;;;;;;2.03;0.20;;;21.20;99.90;;;;;;4981667;28;20030;-72
2022/03/29 00:06:42;;;;;;;1.13;0.30;;;21.20;99.90;;;;;;4969148;28;20038;-72
2022/03/29 00:09:10;;;;;;;0.10;0.10;;;21.20;99.90;;;;;;4970767;28;20497;-73
2022/03/29 00:11:37;;;;;;;0.40;0.10;;;21.30;99.90;;;;;;4975706;28;20041;-73
2022/03/29 00:14:06;;;;;;;0.38;0.10;;;21.30;99.90;;;;;;4975437;28;20104;-72
2022/03/29 00:16:34;;;;;;;0.32;0.20;;;21.30;99.90;;;;;;4971222;28;20113;-72
2022/03/29 00:19:01;;;;;;;0.90;0.30;;;21.30;99.90;;;;;;4970026;28;20037;-71
2022/03/29 00:21:29;;;;;;;0.60;0.20;;;21.40;99.90;;;;;;4970294;28;20552;-72
2022/03/29 00:23:56;;;;;;;0.30;0.10;;;21.50;99.90;;;;;;4983923;28;20029;-73
2022/03/29 00:26:23;;;;;;;1.33;0.20;;;21.50;99.90;;;;;;4983620;28;20023;-73
2022/03/29 00:28:52;;;;;;;1.08;0.10;;;21.60;99.90;;;;;;4973745;28;20030;-72
2022/03/29 00:31:22;;;;;;;1.10;0.30;;;21.60;99.90;;;;;;4977651;28;20468;-72
2022/03/29 00:33:50;;;;;;;1.48;0.55;;;21.60;99.90;;;;;;4974042;28;20113;-72
2022/03/29 00:36:18;;;;;;;1.55;0.40;;;21.60;99.90;;;;;;4984130;28;20074;-71
2022/03/29 00:38:48;;;;;;;0.32;0.25;;;21.60;99.90;;;;;;4984372;28;20027;-71
2022/03/29 00:41:16;;;;;;;0.40;0.20;;;21.60;99.90;;;;;;4972923;28;20457;-72
2022/03/29 00:43:43;;;;;;;3.67;0.20;;;21.70;99.90;;;;;;4972581;28;20034;-71
2022/03/29 00:46:10;;;;;;;0.30;0.10;;;21.70;99.90;;;;;;4973743;28;20401;-70
2022/03/29 00:48:41;;;;;;;0.10;0.00;;;21.70;99.90;;;;;;4975984;28;20026;-71
2022/03/29 00:51:08;;;;;;;0.50;0.10;;;21.70;99.90;;;;;;4973737;28;20046;-73
2022/03/29 00:53:36;;;;;;;1.50;0.10;;;21.80;99.90;;;;;;4976868;28;20031;-71
2022/03/29 00:56:04;;;;;;;0.57;0.10;;;21.70;99.90;;;;;;4974261;28;20110;-71
2022/03/29 00:58:34;;;;;;;0.93;0.52;;;21.80;99.90;;;;;;4975036;28;20093;-70
2022/03/29 01:01:02;;;;;;;1.27;0.22;;;21.80;99.90;;;;;;4988625;28;20870;-72
2022/03/29 01:03:33;;;;;;;1.63;0.50;;;21.80;99.90;;;;;;4973197;28;20101;-72
2022/03/29 01:06:00;;;;;;;0.82;0.20;;;21.90;99.90;;;;;;4980514;28;20030;-71
2022/03/29 01:08:28;;;;;;;5.32;0.47;;;22.00;99.90;;;;;;4978332;28;20030;-71
2022/03/29 01:10:55;;;;;;;5.88;0.70;;;22.00;99.90;;;;;;4974145;28;20038;-72
2022/03/29 01:13:23;;;;;;;4.78;0.60;;;22.10;99.90;;;;;;4978181;28;20039;-72
2022/03/29 01:15:51;;;;;;;5.10;0.85;;;22.00;99.90;;;;;;4978365;28;20122;-71
2022/03/29 01:18:20;;;;;;;1.85;0.45;;;22.00;99.90;;;;;;4972845;28;20050;-71
2022/03/29 01:20:57;;;;;;;3.25;0.50;;;22.10;99.90;;;;;;4973035;28;20053;-74
2022/03/29 01:23:24;;;;;;;1.42;0.20;;;22.20;99.90;;;;;;4979047;28;20401;-73
2022/03/29 01:25:52;;;;;;;3.20;0.32;;;22.20;99.90;;;;;;4973340;28;20213;-74
2022/03/29 01:28:23;;;;;;;5.53;0.40;;;22.30;99.90;;;;;;4980812;28;20018;-71
2022/03/29 01:30:53;;;;;;;1.55;0.28;;;22.40;99.90;;;;;;4969763;28;20494;-72
2022/03/29 01:33:21;;;;;;;2.85;0.20;;;22.40;99.90;;;;;;4972001;28;20034;-72
2022/03/29 01:35:49;;;;;;;3.83;0.30;;;22.40;99.90;;;;;;4973258;28;20042;-71
2022/03/29 01:38:16;;;;;;;2.10;0.75;;;22.40;99.90;;;;;;4974167;28;20485;-74
2022/03/29 01:40:44;;;;;;;3.00;0.40;;;22.40;99.90;;;;;;4972574;28;20042;-72
2022/03/29 01:43:11;;;;;;;2.70;0.45;;;22.50;99.90;;;;;;4972603;28;20274;-73
2022/03/29 01:45:39;;;;;;;2.65;0.30;;;22.60;99.90;;;;;;4970679;28;20026;-72
2022/03/29 01:48:06;;;;;;;1.48;0.10;;;22.60;99.90;;;;;;4979444;28;20037;-73
2022/03/29 01:50:34;;;;;;;1.05;0.00;;;22.70;99.90;;;;;;4968929;28;20033;-71
2022/03/29 01:53:01;;;;;;;1.55;0.30;;;22.60;99.90;;;;;;4971626;28;20045;-72
2022/03/29 01:55:28;;;;;;;0.60;0.10;;;22.60;99.90;;;;;;4972444;28;20035;-72
2022/03/29 01:57:56;;;;;;;0.65;0.20;;;22.60;99.90;;;;;;4972026;28;20493;-72
2022/03/29 02:00:33;;;;;;;2.47;0.20;;;22.60;99.90;;;;;;4975141;28;20389;-73
2022/03/29 02:03:06;;;;;;;2.72;0.22;;;22.70;99.90;;;;;;4968988;28;20058;-71
2022/03/29 02:05:34;;;;;;;0.17;0.10;;;22.70;99.90;;;;;;4970318;28;20022;-72
2022/03/29 02:08:03;;;;;;;0.57;0.17;;;22.80;99.90;;;;;;4972043;28;20390;-72
2022/03/29 02:10:31;;;;;;;1.25;0.00;;;22.90;99.90;;;;;;4970776;28;20022;-72
2022/03/29 02:12:58;;;;;;;0.40;0.10;;;23.00;99.90;;;;;;4973228;28;20043;-72
2022/03/29 02:15:26;;;;;;;0.43;0.10;;;23.00;99.90;;;;;;4974966;28;20042;-74
2022/03/29 02:17:54;;;;;;;0.20;0.10;;;23.00;99.90;;;;;;4969873;28;20031;-73
2022/03/29 02:20:24;;;;;;;0.05;0.00;;;23.00;99.90;;;;;;4970955;28;20504;-74
2022/03/29 02:22:51;;;;;;;0.10;0.10;;;23.20;99.90;;;;;;4972907;28;20030;-72
2022/03/29 02:25:19;;;;;;;0.52;0.22;;;23.30;99.90;;;;;;4973078;28;20084;-73
2022/03/29 02:27:46;;;;;;;0.65;0.10;;;23.40;99.90;;;;;;4973623;28;20106;-72
2022/03/29 02:30:17;;;;;;;1.25;0.10;;;23.40;99.90;;;;;;4971723;28;20042;-73
2022/03/29 02:32:45;;;;;;;0.77;0.10;;;23.40;99.90;;;;;;4971573;28;20014;-72
2022/03/29 02:35:13;;;;;;;0.05;0.00;;;23.30;99.90;;;;;;4975595;28;20377;-72
2022/03/29 02:37:44;;;;;;;0.95;0.10;;;23.30;99.90;;;;;;4970123;28;20142;-72
2022/03/29 02:40:15;;;;;;;0.10;0.03;;;23.40;99.90;;;;;;4972366;28;20057;-71
2022/03/29 02:42:55;;;;;;;1.17;0.08;;;23.40;99.90;;;;;;4971206;28;20515;-72
2022/03/29 02:45:25;;;;;;;0.50;0.08;;;23.40;99.90;;;;;;4970729;28;20030;-72
2022/03/29 02:47:56;;;;;;;0.52;0.03;;;23.40;99.90;;;;;;4967713;28;20081;-72
2022/03/29 02:50:24;;;;;;;0.40;0.10;;;23.40;99.90;;;;;;4981213;28;20568;-73
2022/03/29 02:52:53;;;;;;;0.43;0.00;;;23.50;99.90;;;;;;4973161;28;20085;-71
2022/03/29 02:55:23;;;;;;;0.00;0.00;;;23.60;99.90;;;;;;4984586;28;20042;-72
2022/03/29 02:57:50;;;;;;;0.43;0.10;;;23.80;99.90;;;;;;4982682;28;20547;-72
2022/03/29 03:00:18;;;;;;;0.28;0.05;;;24.10;99.90;;;;;;4972935;28;20066;-74
2022/03/29 03:02:47;;;;;;;0.32;0.00;;;24.60;99.90;;;;;;4974513;28;20053;-72
2022/03/29 03:05:15;;;;;;;0.20;0.10;;;24.90;99.90;;;;;;4977529;28;20034;-73
2022/03/29 03:07:45;;;;;;;0.25;0.10;;;25.20;99.90;;;;;;4979063;28;20033;-73
2022/03/29 03:10:13;;;;;;;0.60;0.00;;;25.20;99.90;;;;;;4982320;28;20073;-72
2022/03/29 03:12:45;;;;;;;0.13;0.00;;;25.10;99.90;;;;;;4987558;28;20054;-72
2022/03/29 03:15:15;;;;;;;0.10;0.10;;;25.00;99.90;;;;;;4999600;28;20042;-72
2022/03/29 03:17:42;;;;;;;0.20;0.00;;;24.80;99.90;;;;;;4999211;28;20027;-74
2022/03/29 03:20:11;;;;;;;0.10;0.10;;;24.70;99.90;;;;;;4990664;28;20091;-72
2022/03/29 03:22:39;;;;;;;0.10;0.10;;;24.50;99.90;;;;;;4977124;28;20055;-72
2022/03/29 03:25:09;;;;;;;0.88;0.30;;;24.30;99.90;;;;;;4972455;28;20046;-72
2022/03/29 03:27:36;;;;;;;0.10;0.10;;;24.20;99.90;;;;;;4979069;28;20060;-73
2022/03/29 03:30:12;;;;;;;1.33;0.10;;;24.00;99.90;;;;;;4990085;28;20069;-73
2022/03/29 03:32:41;;;;;;;0.73;0.10;;;23.80;99.90;;;;;;4986228;28;20381;-72
2022/03/29 03:35:10;;;;;;;0.00;0.00;;;23.70;99.90;;;;;;4994247;28;20077;-72
2022/03/29 03:37:37;;;;;;;0.10;0.10;;;23.50;99.90;;;;;;4989271;28;20050;-71
2022/03/29 03:40:07;;;;;;;0.85;0.10;;;23.50;99.90;;;;;;4992281;28;20088;-72
2022/03/29 03:42:37;;;;;;;0.20;0.05;;;23.50;99.90;;;;;;4990741;28;20026;-72
2022/03/29 03:45:06;;;;;;;0.22;0.00;;;23.50;99.90;;;;;;4989274;28;20096;-72
2022/03/29 03:47:34;;;;;;;0.17;0.03;;;23.40;99.90;;;;;;4988508;28;20038;-72
2022/03/29 03:50:08;;;;;;;0.30;0.08;;;23.20;99.90;;;;;;4979814;28;20488;-72
2022/03/29 03:52:35;;;;;;;0.00;0.00;;;23.10;99.90;;;;;;4986985;28;20436;-72
2022/03/29 03:55:03;;;;;;;0.00;0.00;;;23.10;99.90;;;;;;4984015;28;20539;-72
2022/03/29 03:57:31;;;;;;;0.28;0.00;;;22.90;99.90;;;;;;4975438;28;20096;-71
2022/03/29 03:59:58;;;;;;;0.40;0.10;;;22.90;99.90;;;;;;4977351;28;20078;-72
2022/03/29 04:02:25;;;;;;;0.77;0.20;;;22.80;99.90;;;;;;4981901;28;20469;-72
2022/03/29 04:04:53;;;;;;;0.00;0.00;;;22.80;99.90;;;;;;4977013;28;20093;-72
2022/03/29 04:07:20;;;;;;;0.95;0.10;;;22.70;99.90;;;;;;4985374;28;20034;-72
2022/03/29 04:09:47;;;;;;;0.65;0.05;;;22.70;99.90;;;;;;4985460;28;20486;-73
2022/03/29 04:12:15;;;;;;;0.00;0.00;;;22.70;99.90;;;;;;4975882;28;20034;-72
2022/03/29 04:14:42;;;;;;;1.25;0.10;;;22.70;99.90;;;;;;4992495;28;20342;-72
2022/03/29 04:17:11;;;;;;;1.23;0.10;;;22.60;99.90;;;;;;4988146;28;20058;-71
2022/03/29 04:19:39;;;;;;;0.63;0.63;;;22.70;99.90;;;;;;4991309;28;20808;-71
2022/03/29 04:22:06;;;;;;;0.00;0.00;;;22.70;99.90;;;;;;4980625;28;20030;-71
2022/03/29 04:24:34;;;;;;;0.00;0.00;;;22.70;99.90;;;;;;4992650;28;20117;-71
2022/03/29 04:27:02;;;;;;;0.30;0.10;;;22.90;99.90;;;;;;4975316;28;20026;-72
2022/03/29 04:29:29;;;;;;;0.75;0.10;;;22.90;99.90;;;;;;4991807;28;20031;-72
2022/03/29 04:31:57;;;;;;;0.00;0.00;;;23.00;99.90;;;;;;4987867;28;20034;-72
2022/03/29 04:34:25;;;;;;;0.80;0.00;;;23.10;99.90;;;;;;4991530;28;20508;-73
2022/03/29 04:36:52;;;;;;;0.10;0.00;;;23.10;99.90;;;;;;4985567;28;20023;-73
2022/03/29 04:39:19;;;;;;;0.00;0.00;;;23.10;99.90;;;;;;4976034;28;20556;-73
2022/03/29 04:41:47;;;;;;;0.30;0.10;;;23.20;99.90;;;;;;4974238;28;20026;-73
2022/03/29 04:44:14;;;;;;;0.98;0.03;;;23.20;99.90;;;;;;4989068;28;20080;-72
2022/03/29 04:46:41;;;;;;;0.10;0.00;;;23.30;99.90;;;;;;4992046;28;20124;-72
2022/03/29 04:49:09;;;;;;;0.63;0.10;;;23.30;99.90;;;;;;4980722;28;20105;-72
2022/03/29 04:51:36;;;;;;;0.00;0.00;;;23.20;99.90;;;;;;4993075;28;20026;-72
2022/03/29 04:54:04;;;;;;;0.00;0.00;;;23.20;99.90;;;;;;4989732;28;20523;-73
2022/03/29 04:56:33;;;;;;;0.30;0.10;;;23.20;99.90;;;;;;4987389;28;20370;-72
2022/03/29 04:59:00;;;;;;;0.47;0.10;;;23.10;99.90;;;;;;4971133;28;20030;-73
2022/03/29 05:01:27;;;;;;;0.40;0.17;;;23.10;99.90;;;;;;4974364;28;20125;-72
2022/03/29 05:03:55;;;;;;;1.42;0.10;;;23.10;99.90;;;;;;4979988;28;20034;-73
2022/03/29 05:06:22;;;;;;;0.20;0.10;;;23.00;99.90;;;;;;4977107;28;20080;-74
2022/03/29 05:08:50;;;;;;;0.10;0.00;;;23.00;99.90;;;;;;4975558;28;20027;-73
2022/03/29 05:11:17;;;;;;;0.65;0.10;;;23.00;99.90;;;;;;4977730;28;20030;-74
2022/03/29 05:13:44;;;;;;;0.40;0.20;;;22.90;99.90;;;;;;4981625;28;20133;-74
2022/03/29 05:16:12;;;;;;;0.22;0.10;;;22.80;99.90;;;;;;4975495;28;20030;-74
2022/03/29 05:18:39;;;;;;;0.60;0.10;;;22.80;99.90;;;;;;4981439;28;20031;-71
2022/03/29 05:21:08;;;;;;;0.25;0.10;;;22.70;99.90;;;;;;4975520;28;20026;-74
2022/03/29 05:23:35;;;;;;;1.13;0.10;;;22.60;99.90;;;;;;4984107;28;20033;-73
2022/03/29 05:26:02;;;;;;;0.20;0.10;;;22.50;99.90;;;;;;4980046;28;20039;-77
2022/03/29 05:28:30;;;;;;;0.25;0.17;;;22.50;99.90;;;;;;4981417;28;20035;-72
2022/03/29 05:30:57;;;;;;;0.43;0.10;;;22.50;99.90;;;;;;4975933;28;20575;-73
2022/03/29 05:33:25;;;;;;;0.88;0.40;;;22.40;99.90;;;;;;4970499;28;20034;-73
2022/03/29 05:35:52;;;;;;;0.85;0.30;;;22.50;99.90;;;;;;4987270;28;20376;-73
2022/03/29 05:38:19;;;;;;;1.13;0.28;;;22.50;99.90;;;;;;4974439;28;20031;-73
2022/03/29 05:40:46;;;;;;;0.17;0.00;;;22.50;99.90;;;;;;4974442;28;20026;-73
2022/03/29 05:43:14;;;;;;;0.10;0.10;;;22.60;99.90;;;;;;4980592;28;20049;-73
2022/03/29 05:45:42;;;;;;;0.30;0.10;;;22.70;99.90;;;;;;4990212;28;20026;-73
2022/03/29 05:50:55;;;;;;;0.88;0.20;;;22.70;99.90;;;;;;4973552;28;20045;-74
2022/03/29 05:53:23;;;;;;;0.32;0.10;;;22.70;99.90;;;;;;4980086;28;20034;-71
2022/03/29 05:55:51;;;;;;;0.52;0.10;;;22.70;99.90;;;;;;4978267;28;20612;-72
2022/03/29 05:58:18;;;;;;;0.25;0.10;;;22.80;99.90;;;;;;4986729;28;20034;-72
2022/03/29 06:00:46;;;;;;;0.47;0.17;;;22.80;99.90;;;;;;4993375;28;20058;-72
2022/03/29 06:03:13;;;;;;;0.22;0.10;;;22.90;99.90;;;;;;4978530;28;20035;-72
2022/03/29 06:05:42;;;;;;;0.57;0.10;;;22.90;99.90;;;;;;4973800;28;20030;-71
2022/03/29 06:08:11;;;;;;;0.25;0.08;;;22.90;99.90;;;;;;4975059;28;20022;-72
2022/03/29 06:10:38;;;;;;;0.38;0.20;;;23.00;99.90;;;;;;4973823;28;20031;-71
2022/03/29 06:13:08;;;;;;;0.85;0.13;;;23.00;99.90;;;;;;4976771;28;20045;-72
2022/03/29 06:15:36;;;;;;;0.30;0.20;;;23.00;99.90;;;;;;4979430;28;20042;-73
2022/03/29 06:18:04;;;;;;;0.20;0.08;;;23.00;99.90;;;;;;4989419;28;20490;-73
2022/03/29 06:20:32;;;;;;;0.15;0.08;;;23.00;99.90;;;;;;4982261;28;20105;-73
2022/03/29 06:22:59;;;;;;;0.30;0.10;;;23.00;99.90;;;;;;4985776;28;20424;-72
2022/03/29 06:25:29;;;;;;;1.08;0.10;;;23.00;99.90;;;;;;4975917;28;20031;-73
2022/03/29 06:27:56;;;;;;;0.10;0.10;;;23.00;99.90;;;;;;4969794;28;20405;-72
2022/03/29 06:30:23;;;;;;;0.93;0.22;;;22.90;99.90;;;;;;4985397;28;20619;-72
2022/03/29 06:32:54;;;;;;;1.92;0.30;;;22.90;99.90;;;;;;4985255;28;20046;-71
2022/03/29 06:35:26;;;;;;;3.85;0.40;;;22.90;99.90;;;;;;4968147;28;20047;-72
2022/03/29 06:37:58;;;;;;;;;;;22.80;99.90;;;;;;4970760;28;20037;-74
2022/03/29 06:40:27;;;;;;;0.22;0.22;;;22.80;99.90;;;;;;4985683;28;19916;-73
2022/03/29 06:42:57;;;;;;;1.70;0.30;;;22.80;99.90;;;;;;4985814;28;20037;-72
2022/03/29 06:45:26;;;;;;;1.23;0.40;;;22.80;99.90;;;;;;4991035;28;20038;-72
2022/03/29 06:47:53;;;;;;;1.02;0.93;;;22.80;99.90;;;;;;4982474;28;20033;-73
2022/03/29 06:50:21;;;;;;;0.28;0.10;;;22.70;99.90;;;;;;5309362;23;20021;-73
2022/03/29 06:52:48;;;;;;;0.47;0.10;;;22.70;99.90;;;;;;4970477;28;20046;-74
2022/03/29 06:55:18;;;;;;;2.72;0.10;;;22.60;99.90;;;;;;4973007;28;20042;-75
2022/03/29 06:57:46;;;;;;;0.20;0.17;;;22.60;99.90;;;;;;4978396;28;20383;-75
2022/03/29 07:00:15;;;;;;;0.45;0.13;;;22.60;99.90;;;;;;4972768;28;20026;-73
2022/03/29 07:02:42;;;;;;;0.30;0.13;;;22.50;99.90;;;;;;4979206;28;20035;-72
2022/03/29 07:05:10;;;;;;;0.20;0.20;;;22.50;99.90;;;;;;4988070;28;20030;-74
2022/03/29 07:07:37;;;;;;;1.45;0.20;;;22.50;99.90;;;;;;4982658;28;20023;-72
2022/03/29 07:12:59;;;;;;;4.13;0.45;;;22.40;99.90;;;;;;4988394;28;20367;-73
2022/03/29 07:15:27;;;;;;;0.93;0.40;;;22.40;99.90;;;;;;4989870;28;20121;-72
2022/03/29 07:18:03;;;;;;;3.10;0.20;;;22.40;99.90;;;;;;4986873;28;20117;-73
2022/03/29 07:20:30;;;;;;;1.38;0.30;;;22.40;99.90;;;;;;4977899;28;20420;-73
2022/03/29 07:22:58;;;;;;;2.13;0.22;;;22.30;99.90;;;;;;4975135;28;20023;-73
2022/03/29 07:25:31;;;;;;;0.88;0.25;;;22.30;99.90;;;;;;4987367;28;20031;-73
2022/03/29 07:27:59;;;;;;;0.30;0.20;;;22.20;99.90;;;;;;4981085;28;20042;-74
2022/03/29 07:30:27;;;;;;;0.47;0.30;;;22.20;99.90;;;;;;4978047;28;20121;-75
2022/03/29 07:32:59;;;;;;;0.57;0.32;;;22.20;99.90;;;;;;4976909;28;20496;-73
2022/03/29 07:35:29;;;;;;;0.55;0.30;;;22.10;99.90;;;;;;4984692;28;20046;-73
2022/03/29 07:37:59;;;;;;;1.35;0.20;;;22.10;99.90;;;;;;4988438;28;20169;-74
2022/03/29 07:40:29;;;;;;;1.05;0.30;;;22.10;99.90;;;;;;4975664;28;20477;-73
2022/03/29 07:42:57;;;;;;;1.45;0.17;;;22.00;99.90;;;;;;4978522;28;20042;-74
2022/03/29 07:45:25;;;;;;;1.55;0.35;;;22.00;99.90;;;;;;4989722;28;20038;-74
2022/03/29 07:47:56;;;;;;;0.52;0.30;;;22.00;99.90;;;;;;4976476;28;20038;-74
2022/03/29 07:50:26;;;;;;;0.40;0.20;;;21.90;99.90;;;;;;4983853;28;20030;-73
2022/03/29 07:52:57;;;;;;;0.20;0.20;;;21.90;99.90;;;;;;4979723;28;20027;-73
2022/03/29 07:55:25;;;;;;;1.05;0.30;;;21.80;99.90;;;;;;4975295;28;20043;-74
2022/03/29 07:57:53;;;;;;;0.20;0.20;;;21.80;99.90;;;;;;4980288;28;20161;-73
2022/03/29 08:00:33;;;;;;;0.55;0.30;;;21.80;99.90;;;;;;4990051;28;20031;-74
2022/03/29 08:03:05;;;;;;;1.08;0.20;;;21.70;99.90;;;;;;4978185;28;20442;-74
2022/03/29 08:05:35;;;;;;;0.57;0.30;;;21.80;99.90;;;;;;4979982;28;20023;-75
2022/03/29 08:08:04;;;;;;;0.70;0.20;;;21.80;99.90;;;;;;4974912;28;20026;-74
2022/03/29 08:10:33;;;;;;;0.55;0.20;;;21.70;99.90;;;;;;4977059;28;20031;-73
2022/03/29 08:13:03;;;;;;;0.50;0.20;;;21.80;99.90;;;;;;4973479;28;20153;-76
2022/03/29 08:15:30;;;;;;;0.90;0.45;;;21.80;99.90;;;;;;4974605;28;20400;-76
2022/03/29 08:17:59;;;;;;;1.70;1.35;;;21.80;99.90;;;;;;4981251;28;20034;-75
2022/03/29 08:20:27;;;;;;;1.95;1.42;;;21.80;99.90;;;;;;4985612;28;20113;-75
2022/03/29 08:22:59;;;;;;;2.25;0.93;;;21.70;99.90;;;;;;4987570;28;20158;-76
2022/03/29 08:25:27;;;;;;;1.42;1.10;;;21.70;99.90;;;;;;4987865;28;20039;-74
2022/03/29 08:27:56;;;;;;;1.98;1.45;;;21.80;99.90;;;;;;4976004;28;20022;-76
2022/03/29 08:30:27;;;;;;;2.15;1.73;;;21.80;99.90;;;;;;4983960;28;20031;-75
2022/03/29 08:32:55;;;;;;;2.63;1.50;;;21.80;99.90;;;;;;4989271;28;20036;-76
2022/03/29 08:35:23;;;;;;;1.33;0.70;;;21.90;99.90;;;;;;4981424;28;20547;-76
2022/03/29 08:37:52;;;;;;;1.67;0.60;;;22.00;99.90;;;;;;4982224;28;20055;-76
2022/03/29 08:40:26;;;;;;;1.10;0.38;;;22.10;99.90;;;;;;4987511;28;20364;-74
2022/03/29 08:42:56;;;;;;;3.30;1.15;;;22.20;99.90;;;;;;4980574;28;20125;-75
2022/03/29 08:45:29;;;;;;;1.08;0.15;;;22.40;99.90;;;;;;4971764;28;20031;-75
2022/03/29 08:47:59;;;;;;;2.15;0.70;;;22.20;99.90;;;;;;4977163;28;20105;-77
2022/03/29 08:50:31;;;;;;;1.77;0.50;;;22.00;99.90;;;;;;4987878;28;20103;-77
2022/03/29 08:52:59;;;;;;;3.67;0.38;;;21.70;99.90;;;;;;4993372;28;20049;-75
2022/03/29 08:55:28;;;;;;;1.70;0.43;;;21.30;99.90;;;;;;4974189;28;20397;-75
2022/03/29 08:57:55;;;;;;;2.83;0.25;;;21.00;99.90;;;;;;4976748;28;20197;-74
2022/03/29 09:00:24;;;;;;;3.75;0.50;;;20.60;99.90;;;;;;4987439;28;20102;-74
2022/03/29 09:02:52;;;;;;;3.65;0.38;;;20.40;99.90;;;;;;4979413;28;20157;-74
2022/03/29 09:05:28;;;;;;;1.38;0.30;;;20.30;99.90;;;;;;4979265;28;20120;-74
2022/03/29 09:07:57;;;;;;;0.77;0.40;;;20.20;99.90;;;;;;4991037;28;20045;-74
2022/03/29 09:10:49;;;;;;;3.30;0.60;;;20.20;99.90;;;;;;4975489;28;20113;-74
2022/03/29 09:13:22;;;;;;;5.75;0.60;;;20.20;99.90;;;;;;4972137;28;20533;-74
2022/03/29 09:15:54;;;;;;;4.45;0.68;;;20.20;99.90;;;;;;4983245;28;20066;-74
2022/03/29 09:18:22;;;;;;;3.80;0.43;;;20.10;99.90;;;;;;4973307;28;20504;-74
2022/03/29 09:21:17;;;;;;;1.45;0.30;;;20.10;99.90;;;;;;4984524;28;20034;-73
2022/03/29 09:24:06;;;;;;;5.72;1.65;;;20.10;99.90;;;;;;4980015;28;20034;-73
2022/03/29 09:26:36;;;;;;;3.65;0.65;;;20.10;99.90;;;;;;4979304;28;20034;-74
2022/03/29 09:29:11;;;;;;;3.00;1.25;;;20.10;99.90;;;;;;4975894;28;20019;-74
2022/03/29 09:31:40;;;;;;;1.02;0.25;;;20.10;99.90;;;;;;4989127;28;20050;-74
2022/03/29 09:34:20;;;;;;;3.92;0.40;;;20.10;99.90;;;;;;4990353;28;20511;-74
2022/03/29 09:36:53;;;;;;;1.75;0.57;;;20.20;99.90;;;;;;4979536;28;20493;-74
2022/03/29 09:39:33;;;;;;;7.22;0.70;;;20.10;99.90;;;;;;4977626;28;20030;-74
2022/03/29 09:42:15;;;;;;;2.83;0.40;;;20.10;99.90;;;;;;4989716;28;20336;-73
2022/03/29 09:44:51;;;;;;;1.92;0.50;;;20.20;99.90;;;;;;4986848;28;20034;-74
2022/03/29 09:47:20;;;;;;;1.70;0.40;;;20.20;99.90;;;;;;4970907;28;20030;-74
2022/03/29 09:50:04;;;;;;;5.75;1.08;;;20.20;99.90;;;;;;4987716;28;20479;-73
2022/03/29 09:52:40;;;;;;;1.73;0.80;;;20.20;99.90;;;;;;4974405;28;20062;-74
2022/03/29 09:55:20;;;;;;;1.15;0.47;;;20.10;99.90;;;;;;4984085;28;20432;-74
2022/03/29 09:57:50;;;;;;;3.55;1.25;;;20.20;99.90;;;;;;4978553;28;20031;-74
2022/03/29 10:00:39;;;;;;;1.83;0.63;;;20.20;99.90;;;;;;4976208;28;20477;-73
2022/03/29 10:03:11;;;;;;;2.03;0.40;;;20.20;99.90;;;;;;4979097;28;20484;-73
2022/03/29 10:05:40;;;;;;;1.38;0.90;;;20.20;99.90;;;;;;4986984;28;20053;-73
2022/03/29 10:11:02;;;;;;;2.65;0.50;;;20.20;99.90;;;;;;4990204;28;20040;-74
2022/03/29 10:13:30;;;;;;;2.97;0.55;;;20.20;99.90;;;;;;4976120;28;20544;-74
2022/03/29 10:16:00;;;;;;;0.77;0.28;;;20.20;99.90;;;;;;4973983;28;20050;-74
2022/03/29 10:18:28;;;;;;;1.73;0.40;;;20.20;99.90;;;;;;4971855;28;20176;-74
2022/03/29 10:20:56;;;;;;;2.30;0.43;;;20.30;99.90;;;;;;4972504;28;20026;-73
2022/03/29 10:23:28;;;;;;;1.17;0.50;;;20.20;99.90;;;;;;4973404;28;20058;-74
2022/03/29 10:25:57;;;;;;;1.35;0.50;;;20.30;99.90;;;;;;4980852;28;20018;-74
2022/03/29 10:28:28;;;;;;;3.25;1.15;;;20.30;99.90;;;;;;4995171;28;20033;-74
2022/03/29 10:30:56;;;;;;;0.57;0.40;;;20.30;99.90;;;;;;4991818;28;20022;-73
2022/03/29 10:33:31;;;;;;;3.63;0.70;;;20.30;99.90;;;;;;4987194;28;20030;-73
2022/03/29 10:36:12;;;;;;;2.15;0.30;;;20.30;99.90;;;;;;4967387;28;20042;-75
2022/03/29 10:38:45;;;;;;;1.67;0.50;;;20.30;99.90;;;;;;4978248;28;20511;-74
2022/03/29 10:41:30;;;;;;;3.00;0.52;;;20.30;99.90;;;;;;4972845;28;20480;-74
2022/03/29 10:44:08;;;;;;;1.67;0.40;;;20.30;99.90;;;;;;4973649;28;20122;-74
2022/03/29 10:46:38;;;;;;;1.75;0.40;;;20.20;99.90;;;;;;4977082;28;20034;-75
2022/03/29 10:49:32;;;;;;;2.75;1.00;;;20.30;99.90;;;;;;4979706;28;20077;-74
2022/03/29 10:52:05;;;;;;;3.53;0.50;;;20.30;99.90;;;;;;4971078;28;20105;-74
2022/03/29 10:54:37;;;;;;;4.35;0.50;;;20.20;99.90;;;;;;4975105;28;20146;-75
2022/03/29 10:57:08;;;;;;;0.60;0.40;;;20.20;99.90;;;;;;4981822;28;20031;-75
2022/03/29 10:59:39;;;;;;;3.33;0.40;;;20.20;99.90;;;;;;4977896;28;20429;-75
2022/03/29 11:02:20;;;;;;;3.35;0.50;;;20.20;99.90;;;;;;4972236;28;20034;-75
2022/03/29 11:05:11;;;;;;;6.65;0.60;;;20.10;99.90;;;;;;4981364;28;20061;-75
2022/03/29 11:08:00;;;;;;;2.15;0.50;;;20.10;99.90;;;;;;4983124;28;20109;-76
2022/03/29 11:10:45;;;;;;;3.55;1.00;;;20.00;99.90;;;;;;4976478;28;20030;-75
2022/03/29 11:13:26;;;;;;;2.78;0.75;;;20.00;99.90;;;;;;4977730;28;20026;-75
2022/03/29 11:15:55;;;;;;;1.20;0.57;;;20.00;99.90;;;;;;4981009;28;20154;-76
2022/03/29 11:18:31;;;;;;;1.20;0.63;;;20.00;99.90;;;;;;4986013;28;20026;-75
2022/03/29 11:21:04;;;;;;;1.08;0.43;;;19.90;99.90;;;;;;4975019;28;20093;-75
2022/03/29 11:23:45;;;;;;;1.85;0.60;;;19.90;99.90;;;;;;4982397;28;20038;-76
2022/03/29 11:26:15;;;;;;;2.05;0.50;;;19.80;99.90;;;;;;4982422;28;20035;-75
2022/03/29 11:28:51;;;;;;;1.65;0.60;;;19.80;99.90;;;;;;4971892;28;20628;-75
2022/03/29 11:31:19;;;;;;;4.05;0.77;;;19.80;99.90;;;;;;4977220;28;20027;-75
2022/03/29 11:33:51;;;;;;;2.67;0.60;;;19.80;99.90;;;;;;4980440;28;20039;-76
2022/03/29 11:36:19;;;;;;;2.88;1.13;;;19.80;99.90;;;;;;4978052;28;20070;-75
2022/03/29 11:38:47;;;;;;;1.40;1.00;;;19.80;99.90;;;;;;4977092;28;20029;-75
2022/03/29 11:41:26;;;;;;;0.95;0.40;;;19.70;99.90;;;;;;4973143;28;20458;-75
2022/03/29 11:43:57;;;;;;;3.22;0.65;;;19.70;99.90;;;;;;4979668;28;20560;-75
2022/03/29 11:46:25;;;;;;;1.05;0.68;;;19.70;99.90;;;;;;4980271;28;20034;-75
2022/03/29 11:48:53;;;;;;;3.15;1.52;;;19.70;99.90;;;;;;4976440;28;20030;-74
2022/03/29 11:51:22;;;;;;;2.03;0.90;;;19.80;99.90;;;;;;4980050;28;20046;-74
2022/03/29 11:53:57;;;;;;;2.42;1.10;;;19.80;99.90;;;;;;4982891;28;20310;-75
2022/03/29 11:56:25;;;;;;;1.80;1.02;;;19.80;99.90;;;;;;4982666;28;20074;-74
2022/03/29 11:58:56;;;;;;;2.78;1.55;;;19.80;99.90;;;;;;4978448;28;20080;-75
2022/03/29 12:01:31;;;;;;;3.22;1.50;;;19.90;99.90;;;;;;4978871;28;20023;-75
2022/03/29 12:04:01;;;;;;;4.97;2.00;;;19.90;99.90;;;;;;4986166;28;20015;-75
2022/03/29 12:06:30;;;;;;;3.70;2.30;;;19.90;99.90;;;;;;4978422;28;20085;-75
2022/03/29 12:08:59;;;;;;;2.92;1.67;;;20.00;99.90;;;;;;4983182;28;20503;-75
2022/03/29 12:11:37;;;;;;;2.65;1.60;;;20.00;99.90;;;;;;4982734;28;20392;-75
2022/03/29 12:14:13;;;;;;;3.97;2.33;;;20.00;99.90;;;;;;4977533;28;20036;-75
2022/03/29 12:16:47;;;;;;;2.70;1.80;;;20.00;99.90;;;;;;4974524;28;20035;-75
2022/03/29 12:19:20;;;;;;;4.03;2.00;;;20.10;99.90;;;;;;4982638;28;20027;-75
2022/03/29 12:22:02;;;;;;;2.78;2.22;;;20.10;99.90;;;;;;4978732;28;20033;-75
2022/03/29 12:24:50;;;;;;;4.97;3.10;;;20.10;99.90;;;;;;4976985;28;20033;-75
2022/03/29 12:27:19;;;;;;;4.22;2.95;;;20.10;99.90;;;;;;4983492;28;20029;-74
2022/03/29 12:29:51;;;;;;;4.68;3.60;;;20.10;99.90;;;;;;4980948;28;20106;-75
2022/03/29 12:32:19;;;;;;;4.15;2.75;;;20.10;99.90;;;;;;4977825;28;20034;-75
2022/03/29 12:34:56;;;;;;;4.85;3.53;;;20.10;99.90;;;;;;4988722;28;20046;-74
2022/03/29 12:37:23;;;;;;;5.88;3.33;;;20.10;99.90;;;;;;4976088;28;20118;-75
2022/03/29 12:39:55;;;;;;;7.43;4.50;;;20.10;99.90;;;;;;4982150;28;20038;-75
2022/03/29 12:42:23;;;;;;;7.60;2.95;;;20.10;99.90;;;;;;4986687;28;20030;-74
2022/03/29 12:45:00;;;;;;;6.43;3.08;;;20.10;99.90;;;;;;4981391;28;20499;-73
2022/03/29 12:47:32;;;;;;;5.35;2.42;;;20.10;99.90;;;;;;4984212;28;20022;-74
2022/03/29 12:50:03;;;;;;;3.00;1.77;;;20.10;99.90;;;;;;4973028;28;20150;-74
2022/03/29 12:52:39;;;;;;;2.17;1.75;;;20.10;99.90;;;;;;4980080;28;20409;-74
2022/03/29 12:55:07;;;;;;;2.92;1.55;;;20.00;99.90;;;;;;4980286;28;20053;-74
2022/03/29 12:57:43;;;;;;;5.57;2.40;;;20.00;99.90;;;;;;4983290;28;20114;-74
2022/03/29 13:00:14;;;;;;;6.15;1.70;;;20.00;99.90;;;;;;4977198;28;20039;-74
2022/03/29 13:02:48;;;;;;;7.25;1.70;;;20.00;99.90;;;;;;4972122;28;20057;-75
2022/03/29 13:05:19;;;;;;;1.42;1.08;;;20.00;99.90;;;;;;4982057;28;20027;-74
2022/03/29 13:08:00;;;;;;;2.88;0.82;;;20.00;99.90;;;;;;4973534;28;20035;-74
2022/03/29 13:10:42;;;;;;;2.28;1.20;;;20.00;99.90;;;;;;4981411;28;20105;-74
2022/03/29 13:13:17;;;;;;;2.03;1.02;;;20.00;99.90;;;;;;4989346;28;20054;-73